Terminal Aerodrome Forecast
Issued by NWS Pocatello, ID

Home | Current Version | Previous Version | Text Only | Print | Product List | Glossary On
Versions: 1 2 3 4 5 6 7 8 9 10 11 12 13 14 15 16 17 18
259
FTUS45 KPIH 221120
TAFBYI
TAF
KBYI 221120Z 2212/2312 20011KT P6SM BKN080
     FM221900 16013G23KT P6SM VCSH SCT040 OVC060
     FM230200 21009KT 6SM -SN BR BKN015 OVC030
     FM230900 21005KT P6SM VCSH SCT025 BKN050=

USA.gov is the U.S. government's official web portal to all federal, state and local government web resources and services.